sensor_id;sensor_type;location;lat;lon;timestamp;temperature;humidity
83964;DHT22;73994;50.868;5.420;2024-01-06T00:01:34;6.80;86.40
83964;DHT22;73994;50.868;5.420;2024-01-06T00:04:00;6.80;86.40
83964;DHT22;73994;50.868;5.420;2024-01-06T00:06:25;6.80;86.40
83964;DHT22;73994;50.868;5.420;2024-01-06T00:08:51;6.80;86.30
83964;DHT22;73994;50.868;5.420;2024-01-06T00:11:20;6.80;86.40
83964;DHT22;73994;50.868;5.420;2024-01-06T00:13:46;6.80;86.30
83964;DHT22;73994;50.868;5.420;2024-01-06T00:16:12;6.80;86.20
83964;DHT22;73994;50.868;5.420;2024-01-06T00:18:39;6.80;86.30
83964;DHT22;73994;50.868;5.420;2024-01-06T00:21:05;6.80;86.40
83964;DHT22;73994;50.868;5.420;2024-01-06T00:23:30;6.90;86.40
83964;DHT22;73994;50.868;5.420;2024-01-06T00:25:56;6.90;86.40
83964;DHT22;73994;50.868;5.420;2024-01-06T00:28:22;6.90;86.30
83964;DHT22;73994;50.868;5.420;2024-01-06T00:30:48;6.80;86.20
83964;DHT22;73994;50.868;5.420;2024-01-06T00:33:14;6.80;86.30
83964;DHT22;73994;50.868;5.420;2024-01-06T00:35:40;6.80;86.20
83964;DHT22;73994;50.868;5.420;2024-01-06T00:38:05;6.80;86.30
83964;DHT22;73994;50.868;5.420;2024-01-06T00:40:31;6.80;86.20
83964;DHT22;73994;50.868;5.420;2024-01-06T00:42:58;6.70;86.10
83964;DHT22;73994;50.868;5.420;2024-01-06T00:45:24;6.70;86.10
83964;DHT22;73994;50.868;5.420;2024-01-06T00:47:50;6.70;86.20
83964;DHT22;73994;50.868;5.420;2024-01-06T00:50:17;6.80;86.30
83964;DHT22;73994;50.868;5.420;2024-01-06T00:52:44;6.70;86.10
83964;DHT22;73994;50.868;5.420;2024-01-06T00:55:10;6.80;86.20
83964;DHT22;73994;50.868;5.420;2024-01-06T00:57:35;6.70;86.30
83964;DHT22;73994;50.868;5.420;2024-01-06T01:00:03;6.70;86.20
83964;DHT22;73994;50.868;5.420;2024-01-06T01:02:28;6.80;86.20
83964;DHT22;73994;50.868;5.420;2024-01-06T01:04:54;6.70;86.10
83964;DHT22;73994;50.868;5.420;2024-01-06T01:07:20;6.70;86.00
83964;DHT22;73994;50.868;5.420;2024-01-06T01:09:45;6.70;86.00
83964;DHT22;73994;50.868;5.420;2024-01-06T01:12:11;6.70;85.90
83964;DHT22;73994;50.868;5.420;2024-01-06T01:14:37;6.70;85.90
83964;DHT22;73994;50.868;5.420;2024-01-06T01:17:03;6.70;86.00
83964;DHT22;73994;50.868;5.420;2024-01-06T01:19:29;6.70;86.00
83964;DHT22;73994;50.868;5.420;2024-01-06T01:21:55;6.70;86.00
83964;DHT22;73994;50.868;5.420;2024-01-06T01:24:22;6.60;85.90
83964;DHT22;73994;50.868;5.420;2024-01-06T01:26:48;6.60;85.90
83964;DHT22;73994;50.868;5.420;2024-01-06T01:29:14;6.60;85.90
83964;DHT22;73994;50.868;5.420;2024-01-06T01:31:39;6.60;85.90
83964;DHT22;73994;50.868;5.420;2024-01-06T01:34:05;6.60;85.90
83964;DHT22;73994;50.868;5.420;2024-01-06T01:36:31;6.60;86.00
83964;DHT22;73994;50.868;5.420;2024-01-06T01:38:56;6.60;86.10
83964;DHT22;73994;50.868;5.420;2024-01-06T01:41:22;6.60;85.90
83964;DHT22;73994;50.868;5.420;2024-01-06T01:43:47;6.60;85.50
83964;DHT22;73994;50.868;5.420;2024-01-06T01:46:13;6.60;84.60
83964;DHT22;73994;50.868;5.420;2024-01-06T01:48:39;6.60;84.10
83964;DHT22;73994;50.868;5.420;2024-01-06T01:51:06;6.60;84.00
83964;DHT22;73994;50.868;5.420;2024-01-06T01:53:33;6.60;83.60
83964;DHT22;73994;50.868;5.420;2024-01-06T01:55:58;6.60;84.20
83964;DHT22;73994;50.868;5.420;2024-01-06T01:58:25;6.60;84.10
83964;DHT22;73994;50.868;5.420;2024-01-06T02:00:50;6.60;84.20
83964;DHT22;73994;50.868;5.420;2024-01-06T02:03:16;6.60;84.20
83964;DHT22;73994;50.868;5.420;2024-01-06T02:05:42;6.70;84.50
83964;DHT22;73994;50.868;5.420;2024-01-06T02:08:08;6.60;84.40
83964;DHT22;73994;50.868;5.420;2024-01-06T02:10:34;6.60;83.90
83964;DHT22;73994;50.868;5.420;2024-01-06T02:13:12;6.60;83.90
83964;DHT22;73994;50.868;5.420;2024-01-06T02:15:38;6.60;83.80
83964;DHT22;73994;50.868;5.420;2024-01-06T02:18:04;6.60;84.00
83964;DHT22;73994;50.868;5.420;2024-01-06T02:20:31;6.60;84.00
83964;DHT22;73994;50.868;5.420;2024-01-06T02:22:56;6.60;84.00
83964;DHT22;73994;50.868;5.420;2024-01-06T02:25:24;6.60;84.20
83964;DHT22;73994;50.868;5.420;2024-01-06T02:27:50;6.60;83.70
83964;DHT22;73994;50.868;5.420;2024-01-06T02:30:15;6.50;83.70
83964;DHT22;73994;50.868;5.420;2024-01-06T02:32:41;6.50;83.60
83964;DHT22;73994;50.868;5.420;2024-01-06T02:35:07;6.60;83.80
83964;DHT22;73994;50.868;5.420;2024-01-06T02:37:33;6.60;84.10
83964;DHT22;73994;50.868;5.420;2024-01-06T02:39:58;6.60;83.80
83964;DHT22;73994;50.868;5.420;2024-01-06T02:42:24;6.70;84.00
83964;DHT22;73994;50.868;5.420;2024-01-06T02:44:51;6.60;83.50
83964;DHT22;73994;50.868;5.420;2024-01-06T02:47:16;6.60;83.50
83964;DHT22;73994;50.868;5.420;2024-01-06T02:49:42;6.60;83.50
83964;DHT22;73994;50.868;5.420;2024-01-06T02:52:08;6.60;83.40
83964;DHT22;73994;50.868;5.420;2024-01-06T02:54:34;6.60;83.00
83964;DHT22;73994;50.868;5.420;2024-01-06T02:57:00;6.60;83.40
83964;DHT22;73994;50.868;5.420;2024-01-06T02:59:25;6.60;83.70
83964;DHT22;73994;50.868;5.420;2024-01-06T03:01:51;6.60;83.60
83964;DHT22;73994;50.868;5.420;2024-01-06T03:04:17;6.60;83.90
83964;DHT22;73994;50.868;5.420;2024-01-06T03:06:43;6.60;83.50
83964;DHT22;73994;50.868;5.420;2024-01-06T03:09:08;6.60;83.80
83964;DHT22;73994;50.868;5.420;2024-01-06T03:11:34;6.70;84.30
83964;DHT22;73994;50.868;5.420;2024-01-06T03:14:00;6.70;84.40
83964;DHT22;73994;50.868;5.420;2024-01-06T03:16:25;6.70;84.00
83964;DHT22;73994;50.868;5.420;2024-01-06T03:18:51;6.70;83.80
83964;DHT22;73994;50.868;5.420;2024-01-06T03:21:18;6.70;83.70
83964;DHT22;73994;50.868;5.420;2024-01-06T03:23:44;6.70;83.30
83964;DHT22;73994;50.868;5.420;2024-01-06T03:26:10;6.70;83.00
83964;DHT22;73994;50.868;5.420;2024-01-06T03:28:36;6.60;83.40
83964;DHT22;73994;50.868;5.420;2024-01-06T03:31:02;6.60;83.20
83964;DHT22;73994;50.868;5.420;2024-01-06T03:33:28;6.60;83.00
83964;DHT22;73994;50.868;5.420;2024-01-06T03:35:53;6.60;83.30
83964;DHT22;73994;50.868;5.420;2024-01-06T03:38:19;6.60;82.90
83964;DHT22;73994;50.868;5.420;2024-01-06T03:40:45;6.60;83.30
83964;DHT22;73994;50.868;5.420;2024-01-06T03:43:10;6.60;83.20
83964;DHT22;73994;50.868;5.420;2024-01-06T03:45:36;6.60;82.80
83964;DHT22;73994;50.868;5.420;2024-01-06T03:48:02;6.60;82.50
83964;DHT22;73994;50.868;5.420;2024-01-06T03:50:27;6.60;82.50
83964;DHT22;73994;50.868;5.420;2024-01-06T03:52:53;6.70;82.60
83964;DHT22;73994;50.868;5.420;2024-01-06T03:55:19;6.60;82.60
83964;DHT22;73994;50.868;5.420;2024-01-06T03:57:44;6.60;82.30
83964;DHT22;73994;50.868;5.420;2024-01-06T04:00:10;6.60;81.90
83964;DHT22;73994;50.868;5.420;2024-01-06T04:02:36;6.60;81.90
83964;DHT22;73994;50.868;5.420;2024-01-06T04:05:02;6.60;81.40
83964;DHT22;73994;50.868;5.420;2024-01-06T04:07:30;6.50;81.30
83964;DHT22;73994;50.868;5.420;2024-01-06T04:09:58;6.50;81.40
83964;DHT22;73994;50.868;5.420;2024-01-06T04:12:24;6.50;81.50
83964;DHT22;73994;50.868;5.420;2024-01-06T04:14:50;6.50;81.60
83964;DHT22;73994;50.868;5.420;2024-01-06T04:17:15;6.50;81.20
83964;DHT22;73994;50.868;5.420;2024-01-06T04:19:41;6.50;81.60
83964;DHT22;73994;50.868;5.420;2024-01-06T04:22:07;6.50;81.60
83964;DHT22;73994;50.868;5.420;2024-01-06T04:24:32;6.40;81.40
83964;DHT22;73994;50.868;5.420;2024-01-06T04:27:03;6.50;81.50
83964;DHT22;73994;50.868;5.420;2024-01-06T04:29:29;6.40;81.50
83964;DHT22;73994;50.868;5.420;2024-01-06T04:31:55;6.50;81.50
83964;DHT22;73994;50.868;5.420;2024-01-06T04:34:20;6.40;81.50
83964;DHT22;73994;50.868;5.420;2024-01-06T04:36:46;6.50;81.20
83964;DHT22;73994;50.868;5.420;2024-01-06T04:39:12;6.40;81.20
83964;DHT22;73994;50.868;5.420;2024-01-06T04:41:44;6.40;81.00
83964;DHT22;73994;50.868;5.420;2024-01-06T04:44:28;6.40;81.20
83964;DHT22;73994;50.868;5.420;2024-01-06T04:46:54;6.50;80.90
83964;DHT22;73994;50.868;5.420;2024-01-06T04:49:20;6.40;80.70
83964;DHT22;73994;50.868;5.420;2024-01-06T04:51:45;6.40;80.60
83964;DHT22;73994;50.868;5.420;2024-01-06T04:54:12;6.40;80.50
83964;DHT22;73994;50.868;5.420;2024-01-06T04:56:38;6.40;80.60
83964;DHT22;73994;50.868;5.420;2024-01-06T04:59:03;6.40;80.50
83964;DHT22;73994;50.868;5.420;2024-01-06T05:01:29;6.40;79.70
83964;DHT22;73994;50.868;5.420;2024-01-06T05:03:55;6.30;79.70
83964;DHT22;73994;50.868;5.420;2024-01-06T05:06:20;6.30;80.40
83964;DHT22;73994;50.868;5.420;2024-01-06T05:08:46;6.30;80.30
83964;DHT22;73994;50.868;5.420;2024-01-06T05:11:12;6.30;79.10
83964;DHT22;73994;50.868;5.420;2024-01-06T05:13:38;6.30;80.20
83964;DHT22;73994;50.868;5.420;2024-01-06T05:16:03;6.30;80.00
83964;DHT22;73994;50.868;5.420;2024-01-06T05:18:29;6.30;79.00
83964;DHT22;73994;50.868;5.420;2024-01-06T05:21:17;6.30;79.50
83964;DHT22;73994;50.868;5.420;2024-01-06T05:23:47;6.30;79.20
83964;DHT22;73994;50.868;5.420;2024-01-06T05:26:13;6.30;78.60
83964;DHT22;73994;50.868;5.420;2024-01-06T05:28:39;6.30;78.40
83964;DHT22;73994;50.868;5.420;2024-01-06T05:31:17;6.20;77.90
83964;DHT22;73994;50.868;5.420;2024-01-06T05:33:43;6.20;78.40
83964;DHT22;73994;50.868;5.420;2024-01-06T05:36:09;6.20;78.10
83964;DHT22;73994;50.868;5.420;2024-01-06T05:38:36;6.10;77.60
83964;DHT22;73994;50.868;5.420;2024-01-06T05:41:02;6.10;77.70
83964;DHT22;73994;50.868;5.420;2024-01-06T05:43:28;6.10;78.10
83964;DHT22;73994;50.868;5.420;2024-01-06T05:45:53;6.10;77.60
83964;DHT22;73994;50.868;5.420;2024-01-06T05:48:19;6.00;77.40
83964;DHT22;73994;50.868;5.420;2024-01-06T05:50:45;6.00;77.50
83964;DHT22;73994;50.868;5.420;2024-01-06T05:53:11;6.00;77.70
83964;DHT22;73994;50.868;5.420;2024-01-06T05:55:39;6.00;77.40
83964;DHT22;73994;50.868;5.420;2024-01-06T05:58:05;6.00;76.40
83964;DHT22;73994;50.868;5.420;2024-01-06T06:00:31;6.00;76.40
83964;DHT22;73994;50.868;5.420;2024-01-06T06:02:59;6.00;77.40
83964;DHT22;73994;50.868;5.420;2024-01-06T06:05:25;6.00;76.80
83964;DHT22;73994;50.868;5.420;2024-01-06T06:07:51;6.00;76.70
83964;DHT22;73994;50.868;5.420;2024-01-06T06:10:18;5.90;75.90
83964;DHT22;73994;50.868;5.420;2024-01-06T06:12:47;5.90;76.80
83964;DHT22;73994;50.868;5.420;2024-01-06T06:15:13;5.90;76.70
83964;DHT22;73994;50.868;5.420;2024-01-06T06:17:41;5.90;75.70
83964;DHT22;73994;50.868;5.420;2024-01-06T06:20:10;5.90;75.30
83964;DHT22;73994;50.868;5.420;2024-01-06T06:22:36;5.80;75.50
83964;DHT22;73994;50.868;5.420;2024-01-06T06:25:01;5.80;75.40
83964;DHT22;73994;50.868;5.420;2024-01-06T06:27:27;5.80;74.70
83964;DHT22;73994;50.868;5.420;2024-01-06T06:29:54;5.80;75.10
83964;DHT22;73994;50.868;5.420;2024-01-06T06:32:19;5.70;74.80
83964;DHT22;73994;50.868;5.420;2024-01-06T06:34:45;5.80;75.50
83964;DHT22;73994;50.868;5.420;2024-01-06T06:37:11;5.80;75.00
83964;DHT22;73994;50.868;5.420;2024-01-06T06:39:37;5.80;75.00
83964;DHT22;73994;50.868;5.420;2024-01-06T06:42:03;5.80;75.00
83964;DHT22;73994;50.868;5.420;2024-01-06T06:44:29;5.80;74.60
83964;DHT22;73994;50.868;5.420;2024-01-06T06:46:55;5.80;74.50
83964;DHT22;73994;50.868;5.420;2024-01-06T06:49:21;5.80;75.00
83964;DHT22;73994;50.868;5.420;2024-01-06T06:51:47;5.80;75.10
83964;DHT22;73994;50.868;5.420;2024-01-06T06:54:14;5.80;74.90
83964;DHT22;73994;50.868;5.420;2024-01-06T06:56:44;5.80;74.70
83964;DHT22;73994;50.868;5.420;2024-01-06T06:59:10;5.80;75.30
83964;DHT22;73994;50.868;5.420;2024-01-06T07:01:36;5.80;75.40
83964;DHT22;73994;50.868;5.420;2024-01-06T07:04:02;5.80;74.90
83964;DHT22;73994;50.868;5.420;2024-01-06T07:06:28;5.70;75.20
83964;DHT22;73994;50.868;5.420;2024-01-06T07:08:55;5.80;75.50
83964;DHT22;73994;50.868;5.420;2024-01-06T07:11:20;5.80;75.40
83964;DHT22;73994;50.868;5.420;2024-01-06T07:13:47;5.80;75.00
83964;DHT22;73994;50.868;5.420;2024-01-06T07:16:13;5.70;75.20
83964;DHT22;73994;50.868;5.420;2024-01-06T07:18:38;5.70;74.70
83964;DHT22;73994;50.868;5.420;2024-01-06T07:21:05;5.80;75.50
83964;DHT22;73994;50.868;5.420;2024-01-06T07:23:34;5.80;75.10
83964;DHT22;73994;50.868;5.420;2024-01-06T07:26:00;5.80;75.30
83964;DHT22;73994;50.868;5.420;2024-01-06T07:28:26;5.80;75.40
83964;DHT22;73994;50.868;5.420;2024-01-06T07:30:52;5.80;74.80
83964;DHT22;73994;50.868;5.420;2024-01-06T07:33:18;5.80;75.00
83964;DHT22;73994;50.868;5.420;2024-01-06T07:35:43;5.80;75.10
83964;DHT22;73994;50.868;5.420;2024-01-06T07:38:10;5.80;74.80
83964;DHT22;73994;50.868;5.420;2024-01-06T07:40:36;5.80;75.00
83964;DHT22;73994;50.868;5.420;2024-01-06T07:43:02;5.80;75.10
83964;DHT22;73994;50.868;5.420;2024-01-06T07:45:28;5.80;75.30
83964;DHT22;73994;50.868;5.420;2024-01-06T07:47:53;5.80;75.30
83964;DHT22;73994;50.868;5.420;2024-01-06T07:50:19;5.80;75.40
83964;DHT22;73994;50.868;5.420;2024-01-06T07:52:44;5.80;75.60
83964;DHT22;73994;50.868;5.420;2024-01-06T07:55:10;5.80;75.80
83964;DHT22;73994;50.868;5.420;2024-01-06T07:57:36;5.80;75.10
83964;DHT22;73994;50.868;5.420;2024-01-06T08:00:02;5.80;75.40
83964;DHT22;73994;50.868;5.420;2024-01-06T08:02:28;5.80;75.90
83964;DHT22;73994;50.868;5.420;2024-01-06T08:04:54;5.80;75.80
83964;DHT22;73994;50.868;5.420;2024-01-06T08:07:21;5.80;75.80
83964;DHT22;73994;50.868;5.420;2024-01-06T08:09:47;5.80;75.60
83964;DHT22;73994;50.868;5.420;2024-01-06T08:12:13;5.80;75.60
83964;DHT22;73994;50.868;5.420;2024-01-06T08:14:50;5.80;75.90
83964;DHT22;73994;50.868;5.420;2024-01-06T08:17:16;5.80;75.80
83964;DHT22;73994;50.868;5.420;2024-01-06T08:19:42;5.90;75.70
83964;DHT22;73994;50.868;5.420;2024-01-06T08:22:07;5.90;75.30
83964;DHT22;73994;50.868;5.420;2024-01-06T08:24:33;5.90;75.70
83964;DHT22;73994;50.868;5.420;2024-01-06T08:26:59;5.90;75.80
83964;DHT22;73994;50.868;5.420;2024-01-06T08:29:25;5.90;75.50
83964;DHT22;73994;50.868;5.420;2024-01-06T08:31:51;5.90;75.50
83964;DHT22;73994;50.868;5.420;2024-01-06T08:34:18;5.90;75.50
83964;DHT22;73994;50.868;5.420;2024-01-06T08:36:44;5.90;75.10
83964;DHT22;73994;50.868;5.420;2024-01-06T08:39:10;5.90;75.50
83964;DHT22;73994;50.868;5.420;2024-01-06T08:41:35;5.90;75.50
83964;DHT22;73994;50.868;5.420;2024-01-06T08:44:01;5.90;75.20
83964;DHT22;73994;50.868;5.420;2024-01-06T08:46:27;5.90;75.20
83964;DHT22;73994;50.868;5.420;2024-01-06T08:48:52;5.90;75.20
83964;DHT22;73994;50.868;5.420;2024-01-06T08:51:18;5.90;75.00
83964;DHT22;73994;50.868;5.420;2024-01-06T08:53:46;5.90;74.50
83964;DHT22;73994;50.868;5.420;2024-01-06T08:56:11;5.80;74.10
83964;DHT22;73994;50.868;5.420;2024-01-06T08:58:37;5.90;74.40
83964;DHT22;73994;50.868;5.420;2024-01-06T09:01:03;5.90;74.60
83964;DHT22;73994;50.868;5.420;2024-01-06T09:03:29;5.90;74.50
83964;DHT22;73994;50.868;5.420;2024-01-06T09:05:58;5.90;74.30
83964;DHT22;73994;50.868;5.420;2024-01-06T09:08:29;5.90;74.00
83964;DHT22;73994;50.868;5.420;2024-01-06T09:10:55;5.90;74.40
83964;DHT22;73994;50.868;5.420;2024-01-06T09:13:23;5.90;73.70
83964;DHT22;73994;50.868;5.420;2024-01-06T09:15:50;5.90;73.00
83964;DHT22;73994;50.868;5.420;2024-01-06T09:18:16;5.90;73.20
83964;DHT22;73994;50.868;5.420;2024-01-06T09:20:42;5.90;73.80
83964;DHT22;73994;50.868;5.420;2024-01-06T09:23:08;5.90;73.70
83964;DHT22;73994;50.868;5.420;2024-01-06T09:25:33;5.90;73.30
83964;DHT22;73994;50.868;5.420;2024-01-06T09:27:59;5.90;73.40
83964;DHT22;73994;50.868;5.420;2024-01-06T09:30:25;5.90;73.90
83964;DHT22;73994;50.868;5.420;2024-01-06T09:32:51;5.90;73.70
83964;DHT22;73994;50.868;5.420;2024-01-06T09:35:17;5.90;73.80
83964;DHT22;73994;50.868;5.420;2024-01-06T09:37:42;5.90;74.00
83964;DHT22;73994;50.868;5.420;2024-01-06T09:40:11;5.90;74.20
83964;DHT22;73994;50.868;5.420;2024-01-06T09:42:39;5.90;74.10
83964;DHT22;73994;50.868;5.420;2024-01-06T09:45:05;5.90;74.00
83964;DHT22;73994;50.868;5.420;2024-01-06T09:47:34;5.90;74.10
83964;DHT22;73994;50.868;5.420;2024-01-06T09:50:01;5.90;73.80
83964;DHT22;73994;50.868;5.420;2024-01-06T09:52:32;5.90;74.20
83964;DHT22;73994;50.868;5.420;2024-01-06T09:55:00;5.80;73.40
83964;DHT22;73994;50.868;5.420;2024-01-06T09:57:27;5.70;73.40
83964;DHT22;73994;50.868;5.420;2024-01-06T09:59:54;5.70;73.70
83964;DHT22;73994;50.868;5.420;2024-01-06T10:02:21;5.70;73.80
83964;DHT22;73994;50.868;5.420;2024-01-06T10:04:48;5.80;74.10
83964;DHT22;73994;50.868;5.420;2024-01-06T10:07:14;5.80;74.10
83964;DHT22;73994;50.868;5.420;2024-01-06T10:09:40;5.80;73.90
83964;DHT22;73994;50.868;5.420;2024-01-06T10:12:07;5.80;73.80
83964;DHT22;73994;50.868;5.420;2024-01-06T10:14:33;5.80;73.90
83964;DHT22;73994;50.868;5.420;2024-01-06T10:16:59;5.80;73.90
83964;DHT22;73994;50.868;5.420;2024-01-06T10:19:24;5.80;73.90
83964;DHT22;73994;50.868;5.420;2024-01-06T10:21:50;5.80;73.70
83964;DHT22;73994;50.868;5.420;2024-01-06T10:24:19;5.80;73.10
83964;DHT22;73994;50.868;5.420;2024-01-06T10:26:45;5.80;73.40
83964;DHT22;73994;50.868;5.420;2024-01-06T10:29:13;5.80;73.60
83964;DHT22;73994;50.868;5.420;2024-01-06T10:31:39;5.80;73.80
83964;DHT22;73994;50.868;5.420;2024-01-06T10:34:05;5.80;73.20
83964;DHT22;73994;50.868;5.420;2024-01-06T10:36:31;5.80;73.10
83964;DHT22;73994;50.868;5.420;2024-01-06T10:38:57;5.80;73.40
83964;DHT22;73994;50.868;5.420;2024-01-06T10:41:24;5.80;72.80
83964;DHT22;73994;50.868;5.420;2024-01-06T10:43:51;5.90;73.20
83964;DHT22;73994;50.868;5.420;2024-01-06T10:46:19;5.90;72.80
83964;DHT22;73994;50.868;5.420;2024-01-06T10:48:46;5.90;72.90
83964;DHT22;73994;50.868;5.420;2024-01-06T10:51:12;5.90;72.70
83964;DHT22;73994;50.868;5.420;2024-01-06T10:53:42;6.00;73.00
83964;DHT22;73994;50.868;5.420;2024-01-06T10:56:09;6.00;72.50
83964;DHT22;73994;50.868;5.420;2024-01-06T10:58:47;6.00;72.80
83964;DHT22;73994;50.868;5.420;2024-01-06T11:01:19;6.00;72.70
83964;DHT22;73994;50.868;5.420;2024-01-06T11:03:45;6.10;72.00
83964;DHT22;73994;50.868;5.420;2024-01-06T11:06:13;6.10;71.10
83964;DHT22;73994;50.868;5.420;2024-01-06T11:11:18;6.10;70.70
83964;DHT22;73994;50.868;5.420;2024-01-06T11:13:45;6.10;70.50
83964;DHT22;73994;50.868;5.420;2024-01-06T11:16:16;6.10;71.10
83964;DHT22;73994;50.868;5.420;2024-01-06T11:18:58;6.10;70.70
83964;DHT22;73994;50.868;5.420;2024-01-06T11:21:24;6.20;71.00
83964;DHT22;73994;50.868;5.420;2024-01-06T11:26:38;6.40;70.20
83964;DHT22;73994;50.868;5.420;2024-01-06T11:29:05;6.50;70.20
83964;DHT22;73994;50.868;5.420;2024-01-06T11:31:31;6.60;69.60
83964;DHT22;73994;50.868;5.420;2024-01-06T11:33:56;6.70;69.80
83964;DHT22;73994;50.868;5.420;2024-01-06T11:36:37;6.70;69.40
83964;DHT22;73994;50.868;5.420;2024-01-06T11:39:02;6.60;69.20
83964;DHT22;73994;50.868;5.420;2024-01-06T11:41:49;6.60;69.90
83964;DHT22;73994;50.868;5.420;2024-01-06T11:44:20;6.60;70.30
83964;DHT22;73994;50.868;5.420;2024-01-06T11:46:47;6.50;70.30
83964;DHT22;73994;50.868;5.420;2024-01-06T11:49:20;6.40;70.00
83964;DHT22;73994;50.868;5.420;2024-01-06T11:51:46;6.40;69.80
83964;DHT22;73994;50.868;5.420;2024-01-06T11:54:12;6.40;70.10
83964;DHT22;73994;50.868;5.420;2024-01-06T11:56:38;6.30;70.20
83964;DHT22;73994;50.868;5.420;2024-01-06T11:59:05;6.30;70.10
83964;DHT22;73994;50.868;5.420;2024-01-06T12:01:40;6.20;70.40
83964;DHT22;73994;50.868;5.420;2024-01-06T12:04:06;6.20;70.70
83964;DHT22;73994;50.868;5.420;2024-01-06T12:06:33;6.30;70.40
83964;DHT22;73994;50.868;5.420;2024-01-06T12:11:31;6.40;70.20
83964;DHT22;73994;50.868;5.420;2024-01-06T12:13:57;6.60;69.90
83964;DHT22;73994;50.868;5.420;2024-01-06T12:16:23;6.80;69.90
83964;DHT22;73994;50.868;5.420;2024-01-06T12:18:53;7.00;69.00
83964;DHT22;73994;50.868;5.420;2024-01-06T12:21:22;7.20;68.70
83964;DHT22;73994;50.868;5.420;2024-01-06T12:23:47;7.30;68.00
83964;DHT22;73994;50.868;5.420;2024-01-06T12:26:13;7.40;67.70
83964;DHT22;73994;50.868;5.420;2024-01-06T12:28:39;7.30;67.50
83964;DHT22;73994;50.868;5.420;2024-01-06T12:31:09;7.20;67.60
83964;DHT22;73994;50.868;5.420;2024-01-06T12:33:35;7.00;67.90
83964;DHT22;73994;50.868;5.420;2024-01-06T12:36:03;6.90;68.60
83964;DHT22;73994;50.868;5.420;2024-01-06T12:38:32;6.80;69.00
83964;DHT22;73994;50.868;5.420;2024-01-06T12:40:57;6.60;69.10
83964;DHT22;73994;50.868;5.420;2024-01-06T12:43:23;6.50;69.90
83964;DHT22;73994;50.868;5.420;2024-01-06T12:45:48;6.40;70.30
83964;DHT22;73994;50.868;5.420;2024-01-06T12:48:18;6.30;70.50
83964;DHT22;73994;50.868;5.420;2024-01-06T12:50:43;6.30;70.30
83964;DHT22;73994;50.868;5.420;2024-01-06T12:53:09;6.20;70.40
83964;DHT22;73994;50.868;5.420;2024-01-06T12:55:37;6.20;70.90
83964;DHT22;73994;50.868;5.420;2024-01-06T12:58:03;6.20;70.90
83964;DHT22;73994;50.868;5.420;2024-01-06T13:00:29;6.20;70.60
83964;DHT22;73994;50.868;5.420;2024-01-06T13:02:55;6.20;70.50
83964;DHT22;73994;50.868;5.420;2024-01-06T13:05:21;6.20;70.30
83964;DHT22;73994;50.868;5.420;2024-01-06T13:07:48;6.10;70.30
83964;DHT22;73994;50.868;5.420;2024-01-06T13:10:15;6.10;70.00
83964;DHT22;73994;50.868;5.420;2024-01-06T13:12:40;6.20;70.50
83964;DHT22;73994;50.868;5.420;2024-01-06T13:15:07;6.20;70.30
83964;DHT22;73994;50.868;5.420;2024-01-06T13:17:37;6.10;70.30
83964;DHT22;73994;50.868;5.420;2024-01-06T13:20:04;6.10;69.80
83964;DHT22;73994;50.868;5.420;2024-01-06T13:22:29;6.10;70.40
83964;DHT22;73994;50.868;5.420;2024-01-06T13:24:56;6.00;70.70
83964;DHT22;73994;50.868;5.420;2024-01-06T13:27:21;6.10;71.20
83964;DHT22;73994;50.868;5.420;2024-01-06T13:29:47;6.00;70.20
83964;DHT22;73994;50.868;5.420;2024-01-06T13:32:13;6.00;70.40
83964;DHT22;73994;50.868;5.420;2024-01-06T13:34:40;6.00;70.20
83964;DHT22;73994;50.868;5.420;2024-01-06T13:37:08;5.90;70.50
83964;DHT22;73994;50.868;5.420;2024-01-06T13:39:33;5.90;70.10
83964;DHT22;73994;50.868;5.420;2024-01-06T13:41:59;5.90;70.70
83964;DHT22;73994;50.868;5.420;2024-01-06T13:44:25;5.90;70.90
83964;DHT22;73994;50.868;5.420;2024-01-06T13:46:51;5.80;70.80
83964;DHT22;73994;50.868;5.420;2024-01-06T13:49:17;5.80;70.70
83964;DHT22;73994;50.868;5.420;2024-01-06T13:51:43;5.80;70.60
83964;DHT22;73994;50.868;5.420;2024-01-06T13:54:09;5.80;70.50
83964;DHT22;73994;50.868;5.420;2024-01-06T13:56:35;5.80;70.30
83964;DHT22;73994;50.868;5.420;2024-01-06T13:59:02;5.70;70.30
83964;DHT22;73994;50.868;5.420;2024-01-06T14:01:29;5.70;70.00
83964;DHT22;73994;50.868;5.420;2024-01-06T14:03:55;5.70;69.90
83964;DHT22;73994;50.868;5.420;2024-01-06T14:06:26;5.80;69.80
83964;DHT22;73994;50.868;5.420;2024-01-06T14:08:56;5.80;69.80
83964;DHT22;73994;50.868;5.420;2024-01-06T14:11:22;5.80;69.10
83964;DHT22;73994;50.868;5.420;2024-01-06T14:13:47;5.80;69.00
83964;DHT22;73994;50.868;5.420;2024-01-06T14:16:18;5.80;68.60
83964;DHT22;73994;50.868;5.420;2024-01-06T14:18:44;5.80;68.50
83964;DHT22;73994;50.868;5.420;2024-01-06T14:21:10;5.70;68.50
83964;DHT22;73994;50.868;5.420;2024-01-06T14:23:36;5.70;68.00
83964;DHT22;73994;50.868;5.420;2024-01-06T14:26:02;5.60;68.50
83964;DHT22;73994;50.868;5.420;2024-01-06T14:28:28;5.60;68.70
83964;DHT22;73994;50.868;5.420;2024-01-06T14:30:55;5.60;68.60
83964;DHT22;73994;50.868;5.420;2024-01-06T14:33:21;5.50;69.20
83964;DHT22;73994;50.868;5.420;2024-01-06T14:35:47;5.50;69.60
83964;DHT22;73994;50.868;5.420;2024-01-06T14:38:13;5.50;69.60
83964;DHT22;73994;50.868;5.420;2024-01-06T14:40:39;5.50;69.40
83964;DHT22;73994;50.868;5.420;2024-01-06T14:43:06;5.50;70.00
83964;DHT22;73994;50.868;5.420;2024-01-06T14:45:32;5.50;69.50
83964;DHT22;73994;50.868;5.420;2024-01-06T14:47:58;5.40;69.60
83964;DHT22;73994;50.868;5.420;2024-01-06T14:50:23;5.40;69.50
83964;DHT22;73994;50.868;5.420;2024-01-06T14:52:49;5.40;69.40
83964;DHT22;73994;50.868;5.420;2024-01-06T14:55:15;5.40;69.70
83964;DHT22;73994;50.868;5.420;2024-01-06T14:57:41;5.40;69.70
83964;DHT22;73994;50.868;5.420;2024-01-06T15:00:08;5.40;69.50
83964;DHT22;73994;50.868;5.420;2024-01-06T15:02:36;5.30;69.30
83964;DHT22;73994;50.868;5.420;2024-01-06T15:05:03;5.30;69.30
83964;DHT22;73994;50.868;5.420;2024-01-06T15:07:30;5.30;69.20
83964;DHT22;73994;50.868;5.420;2024-01-06T15:09:59;5.30;69.40
83964;DHT22;73994;50.868;5.420;2024-01-06T15:12:24;5.30;69.40
83964;DHT22;73994;50.868;5.420;2024-01-06T15:14:50;5.30;69.20
83964;DHT22;73994;50.868;5.420;2024-01-06T15:17:16;5.30;69.60
83964;DHT22;73994;50.868;5.420;2024-01-06T15:19:44;5.30;69.10
83964;DHT22;73994;50.868;5.420;2024-01-06T15:22:10;5.30;69.40
83964;DHT22;73994;50.868;5.420;2024-01-06T15:24:36;5.30;69.70
83964;DHT22;73994;50.868;5.420;2024-01-06T15:27:02;5.30;69.50
83964;DHT22;73994;50.868;5.420;2024-01-06T15:29:27;5.30;68.70
83964;DHT22;73994;50.868;5.420;2024-01-06T15:31:53;5.30;69.10
83964;DHT22;73994;50.868;5.420;2024-01-06T15:34:25;5.30;68.60
83964;DHT22;73994;50.868;5.420;2024-01-06T15:36:51;5.20;68.80
83964;DHT22;73994;50.868;5.420;2024-01-06T15:39:17;5.20;68.50
83964;DHT22;73994;50.868;5.420;2024-01-06T15:41:43;5.30;69.30
83964;DHT22;73994;50.868;5.420;2024-01-06T15:44:09;5.20;69.20
83964;DHT22;73994;50.868;5.420;2024-01-06T15:46:34;5.20;68.60
83964;DHT22;73994;50.868;5.420;2024-01-06T15:49:00;5.20;69.00